sensor_id;sensor_type;location;lat;lon;timestamp;pressure;altitude;pressure_sealevel;temperature;humidity
77321;BME280;66382;52.252;8.780;2024-02-23T00:00:41;97456.34;;;8.95;62.87
77321;BME280;66382;52.252;8.780;2024-02-23T00:03:06;97458.00;;;8.96;64.06
77321;BME280;66382;52.252;8.780;2024-02-23T00:05:32;97467.88;;;8.95;61.87
77321;BME280;66382;52.252;8.780;2024-02-23T00:07:57;97466.25;;;8.94;63.16
77321;BME280;66382;52.252;8.780;2024-02-23T00:10:23;97466.00;;;8.96;63.85
77321;BME280;66382;52.252;8.780;2024-02-23T00:12:48;97466.81;;;8.96;63.36
77321;BME280;66382;52.252;8.780;2024-02-23T00:15:15;97453.44;;;8.96;64.16
77321;BME280;66382;52.252;8.780;2024-02-23T00:17:40;97459.28;;;8.93;63.66
77321;BME280;66382;52.252;8.780;2024-02-23T00:20:09;97471.03;;;8.92;64.15
77321;BME280;66382;52.252;8.780;2024-02-23T00:22:34;97486.00;;;8.93;63.80
77321;BME280;66382;52.252;8.780;2024-02-23T00:25:00;97490.56;;;8.93;64.19
77321;BME280;66382;52.252;8.780;2024-02-23T00:27:25;97481.19;;;8.90;64.83
77321;BME280;66382;52.252;8.780;2024-02-23T00:29:51;97497.97;;;8.86;63.49
77321;BME280;66382;52.252;8.780;2024-02-23T00:32:17;97503.25;;;8.80;64.04
77321;BME280;66382;52.252;8.780;2024-02-23T00:34:43;97509.91;;;8.78;64.44
77321;BME280;66382;52.252;8.780;2024-02-23T00:37:08;97530.16;;;8.74;64.72
77321;BME280;66382;52.252;8.780;2024-02-23T00:39:34;97559.63;;;8.62;65.65
77321;BME280;66382;52.252;8.780;2024-02-23T00:41:59;97561.00;;;8.43;65.70
77321;BME280;66382;52.252;8.780;2024-02-23T00:44:25;97561.50;;;8.23;65.54
77321;BME280;66382;52.252;8.780;2024-02-23T00:46:50;97571.94;;;8.07;66.22
77321;BME280;66382;52.252;8.780;2024-02-23T00:49:17;97564.38;;;7.99;65.58
77321;BME280;66382;52.252;8.780;2024-02-23T00:51:43;97566.06;;;7.88;66.31
77321;BME280;66382;52.252;8.780;2024-02-23T00:54:08;97578.44;;;7.78;65.74
77321;BME280;66382;52.252;8.780;2024-02-23T00:56:34;97582.03;;;7.71;66.01
77321;BME280;66382;52.252;8.780;2024-02-23T00:58:59;97602.25;;;7.67;67.28
77321;BME280;66382;52.252;8.780;2024-02-23T01:01:25;97624.88;;;7.65;66.91
77321;BME280;66382;52.252;8.780;2024-02-23T01:03:50;97650.41;;;7.61;67.20
77321;BME280;66382;52.252;8.780;2024-02-23T01:06:17;97667.59;;;7.53;68.12
77321;BME280;66382;52.252;8.780;2024-02-23T01:08:42;97687.09;;;7.42;68.10
77321;BME280;66382;52.252;8.780;2024-02-23T01:11:08;97697.47;;;7.26;67.71
77321;BME280;66382;52.252;8.780;2024-02-23T01:13:33;97705.50;;;7.15;68.56
77321;BME280;66382;52.252;8.780;2024-02-23T01:15:59;97730.88;;;7.05;68.26
77321;BME280;66382;52.252;8.780;2024-02-23T01:18:24;97749.63;;;6.99;68.76
77321;BME280;66382;52.252;8.780;2024-02-23T01:20:49;97772.59;;;7.00;68.42
77321;BME280;66382;52.252;8.780;2024-02-23T01:23:16;97777.53;;;6.96;69.27
77321;BME280;66382;52.252;8.780;2024-02-23T01:25:42;97780.00;;;6.98;68.98
77321;BME280;66382;52.252;8.780;2024-02-23T01:28:07;97777.22;;;6.93;68.94
77321;BME280;66382;52.252;8.780;2024-02-23T01:30:33;97788.78;;;6.86;68.93
77321;BME280;66382;52.252;8.780;2024-02-23T01:32:58;97795.84;;;6.81;69.39
77321;BME280;66382;52.252;8.780;2024-02-23T01:35:23;97809.63;;;6.78;69.18
77321;BME280;66382;52.252;8.780;2024-02-23T01:37:49;97818.06;;;6.75;68.47
77321;BME280;66382;52.252;8.780;2024-02-23T01:40:16;97824.66;;;6.72;69.09
77321;BME280;66382;52.252;8.780;2024-02-23T01:42:41;97832.50;;;6.67;68.55
77321;BME280;66382;52.252;8.780;2024-02-23T01:45:07;97846.28;;;6.64;69.35
77321;BME280;66382;52.252;8.780;2024-02-23T01:47:33;97846.16;;;6.59;68.70
77321;BME280;66382;52.252;8.780;2024-02-23T01:49:59;97866.88;;;6.57;69.52
77321;BME280;66382;52.252;8.780;2024-02-23T01:52:25;97869.19;;;6.53;69.23
77321;BME280;66382;52.252;8.780;2024-02-23T01:54:51;97872.88;;;6.52;68.87
77321;BME280;66382;52.252;8.780;2024-02-23T01:57:18;97875.78;;;6.51;69.39
77321;BME280;66382;52.252;8.780;2024-02-23T01:59:44;97894.63;;;6.49;69.37
77321;BME280;66382;52.252;8.780;2024-02-23T02:02:09;97899.59;;;6.45;68.93
77321;BME280;66382;52.252;8.780;2024-02-23T02:04:35;97900.69;;;6.38;69.77
77321;BME280;66382;52.252;8.780;2024-02-23T02:07:01;97908.69;;;6.38;69.76
77321;BME280;66382;52.252;8.780;2024-02-23T02:09:26;97917.72;;;6.37;69.26
77321;BME280;66382;52.252;8.780;2024-02-23T02:11:52;97917.38;;;6.33;69.11
77321;BME280;66382;52.252;8.780;2024-02-23T02:14:19;97928.00;;;6.33;68.96
77321;BME280;66382;52.252;8.780;2024-02-23T02:16:44;97918.16;;;6.34;68.66
77321;BME280;66382;52.252;8.780;2024-02-23T02:19:10;97922.31;;;6.30;68.50
77321;BME280;66382;52.252;8.780;2024-02-23T02:21:36;97929.28;;;6.31;69.00
77321;BME280;66382;52.252;8.780;2024-02-23T02:24:02;97932.50;;;6.33;69.02
77321;BME280;66382;52.252;8.780;2024-02-23T02:26:28;97934.28;;;6.39;68.99
77321;BME280;66382;52.252;8.780;2024-02-23T02:28:53;97937.75;;;6.39;68.89
77321;BME280;66382;52.252;8.780;2024-02-23T02:31:20;97951.03;;;6.39;68.78
77321;BME280;66382;52.252;8.780;2024-02-23T02:33:46;97947.78;;;6.37;68.91
77321;BME280;66382;52.252;8.780;2024-02-23T02:36:11;97960.44;;;6.42;68.96
77321;BME280;66382;52.252;8.780;2024-02-23T02:38:37;97969.22;;;6.42;68.96
77321;BME280;66382;52.252;8.780;2024-02-23T02:41:02;97968.06;;;6.38;68.36
77321;BME280;66382;52.252;8.780;2024-02-23T02:43:28;97961.34;;;6.36;68.76
77321;BME280;66382;52.252;8.780;2024-02-23T02:45:53;97986.16;;;6.30;68.51
77321;BME280;66382;52.252;8.780;2024-02-23T02:48:20;97982.69;;;6.29;69.24
77321;BME280;66382;52.252;8.780;2024-02-23T02:50:46;97981.66;;;6.30;68.50
77321;BME280;66382;52.252;8.780;2024-02-23T02:53:11;97984.75;;;6.27;68.84
77321;BME280;66382;52.252;8.780;2024-02-23T02:55:36;97991.47;;;6.30;69.26
77321;BME280;66382;52.252;8.780;2024-02-23T02:58:02;97995.78;;;6.31;68.73
77321;BME280;66382;52.252;8.780;2024-02-23T03:00:28;98004.56;;;6.31;68.91
77321;BME280;66382;52.252;8.780;2024-02-23T03:02:53;97996.81;;;6.30;69.03
77321;BME280;66382;52.252;8.780;2024-02-23T03:05:20;97993.94;;;6.31;68.38
77321;BME280;66382;52.252;8.780;2024-02-23T03:07:45;97991.28;;;6.31;68.40
77321;BME280;66382;52.252;8.780;2024-02-23T03:10:12;97997.63;;;6.30;69.06
77321;BME280;66382;52.252;8.780;2024-02-23T03:12:37;97999.25;;;6.31;69.11
77321;BME280;66382;52.252;8.780;2024-02-23T03:15:04;98005.03;;;6.28;68.71
77321;BME280;66382;52.252;8.780;2024-02-23T03:17:29;97994.59;;;6.27;68.65
77321;BME280;66382;52.252;8.780;2024-02-23T03:19:55;98004.66;;;6.24;68.25
77321;BME280;66382;52.252;8.780;2024-02-23T03:22:22;98014.47;;;6.24;68.67
77321;BME280;66382;52.252;8.780;2024-02-23T03:24:47;98002.56;;;6.27;68.47
77321;BME280;66382;52.252;8.780;2024-02-23T03:27:12;98008.09;;;6.25;68.32
77321;BME280;66382;52.252;8.780;2024-02-23T03:29:38;98011.00;;;6.23;68.39
77321;BME280;66382;52.252;8.780;2024-02-23T03:32:04;98015.66;;;6.28;68.07
77321;BME280;66382;52.252;8.780;2024-02-23T03:34:30;97996.81;;;6.30;68.45
77321;BME280;66382;52.252;8.780;2024-02-23T03:36:55;98023.06;;;6.26;68.78
77321;BME280;66382;52.252;8.780;2024-02-23T03:39:22;98022.41;;;6.31;68.13
77321;BME280;66382;52.252;8.780;2024-02-23T03:41:47;98011.97;;;6.29;67.63
77321;BME280;66382;52.252;8.780;2024-02-23T03:44:13;98026.88;;;6.30;68.50
77321;BME280;66382;52.252;8.780;2024-02-23T03:46:38;98023.19;;;6.31;68.18
77321;BME280;66382;52.252;8.780;2024-02-23T03:49:04;98030.38;;;6.31;68.31
77321;BME280;66382;52.252;8.780;2024-02-23T03:54:33;98015.22;;;6.31;68.09
77321;BME280;66382;52.252;8.780;2024-02-23T03:56:59;98028.72;;;6.30;68.10
77321;BME280;66382;52.252;8.780;2024-02-23T03:59:24;98035.47;;;6.32;67.84
77321;BME280;66382;52.252;8.780;2024-02-23T04:01:50;98040.34;;;6.35;68.55
77321;BME280;66382;52.252;8.780;2024-02-23T04:04:15;98039.31;;;6.36;68.51
77321;BME280;66382;52.252;8.780;2024-02-23T04:06:41;98035.59;;;6.37;67.67
77321;BME280;66382;52.252;8.780;2024-02-23T04:09:06;98042.78;;;6.37;67.91
77321;BME280;66382;52.252;8.780;2024-02-23T04:11:33;98039.91;;;6.38;67.56
77321;BME280;66382;52.252;8.780;2024-02-23T04:13:58;98045.66;;;6.35;67.58
77321;BME280;66382;52.252;8.780;2024-02-23T04:16:24;98043.84;;;6.36;67.42
77321;BME280;66382;52.252;8.780;2024-02-23T04:18:49;98031.53;;;6.35;67.15
77321;BME280;66382;52.252;8.780;2024-02-23T04:21:15;98043.22;;;6.34;67.62
77321;BME280;66382;52.252;8.780;2024-02-23T04:23:40;98044.25;;;6.33;67.23
77321;BME280;66382;52.252;8.780;2024-02-23T04:26:06;98050.41;;;6.33;67.84
77321;BME280;66382;52.252;8.780;2024-02-23T04:28:32;98063.72;;;6.33;67.54
77321;BME280;66382;52.252;8.780;2024-02-23T04:30:58;98056.75;;;6.32;67.28
77321;BME280;66382;52.252;8.780;2024-02-23T04:33:24;98061.91;;;6.27;66.74
77321;BME280;66382;52.252;8.780;2024-02-23T04:35:49;98066.44;;;6.27;66.71
77321;BME280;66382;52.252;8.780;2024-02-23T04:38:15;98057.25;;;6.22;66.81
77321;BME280;66382;52.252;8.780;2024-02-23T04:40:40;98061.41;;;6.18;66.74
77321;BME280;66382;52.252;8.780;2024-02-23T04:43:06;98066.28;;;6.21;67.08
77321;BME280;66382;52.252;8.780;2024-02-23T04:45:32;98072.19;;;6.23;66.60
77321;BME280;66382;52.252;8.780;2024-02-23T04:47:58;98090.00;;;6.23;66.68
77321;BME280;66382;52.252;8.780;2024-02-23T04:50:23;98092.66;;;6.23;66.91
77321;BME280;66382;52.252;8.780;2024-02-23T04:52:49;98096.34;;;6.22;66.47
77321;BME280;66382;52.252;8.780;2024-02-23T04:55:14;98081.59;;;6.26;66.71
77321;BME280;66382;52.252;8.780;2024-02-23T04:57:40;98095.91;;;6.25;66.59
77321;BME280;66382;52.252;8.780;2024-02-23T05:00:06;98100.81;;;6.28;66.55
77321;BME280;66382;52.252;8.780;2024-02-23T05:02:33;98122.66;;;6.30;66.58
77321;BME280;66382;52.252;8.780;2024-02-23T05:04:59;98114.28;;;6.33;66.58
77321;BME280;66382;52.252;8.780;2024-02-23T05:07:24;98124.06;;;6.33;66.61
77321;BME280;66382;52.252;8.780;2024-02-23T05:09:49;98117.16;;;6.32;65.58
77321;BME280;66382;52.252;8.780;2024-02-23T05:12:15;98112.25;;;6.29;65.83
77321;BME280;66382;52.252;8.780;2024-02-23T05:14:40;98125.34;;;6.30;66.22
77321;BME280;66382;52.252;8.780;2024-02-23T05:17:06;98126.38;;;6.29;66.66
77321;BME280;66382;52.252;8.780;2024-02-23T05:19:32;98132.75;;;6.28;66.40
77321;BME280;66382;52.252;8.780;2024-02-23T05:21:58;98136.63;;;6.25;66.31
77321;BME280;66382;52.252;8.780;2024-02-23T05:24:23;98121.72;;;6.24;66.57
77321;BME280;66382;52.252;8.780;2024-02-23T05:26:49;98139.53;;;6.24;66.03
77321;BME280;66382;52.252;8.780;2024-02-23T05:29:14;98147.50;;;6.24;66.64
77321;BME280;66382;52.252;8.780;2024-02-23T05:31:47;98136.88;;;6.24;66.76
77321;BME280;66382;52.252;8.780;2024-02-23T05:34:13;98138.47;;;6.25;66.19
77321;BME280;66382;52.252;8.780;2024-02-23T05:36:40;98141.38;;;6.23;65.81
77321;BME280;66382;52.252;8.780;2024-02-23T05:39:06;98143.81;;;6.25;65.75
77321;BME280;66382;52.252;8.780;2024-02-23T05:41:31;98139.72;;;6.22;66.32
77321;BME280;66382;52.252;8.780;2024-02-23T05:43:57;98139.13;;;6.20;66.17
77321;BME280;66382;52.252;8.780;2024-02-23T05:46:22;98144.09;;;6.17;65.97
77321;BME280;66382;52.252;8.780;2024-02-23T05:48:47;98146.38;;;6.13;66.50
77321;BME280;66382;52.252;8.780;2024-02-23T05:51:13;98158.66;;;6.14;66.65
77321;BME280;66382;52.252;8.780;2024-02-23T05:53:40;98169.28;;;6.14;66.82
77321;BME280;66382;52.252;8.780;2024-02-23T05:56:06;98172.75;;;6.15;66.67
77321;BME280;66382;52.252;8.780;2024-02-23T05:58:31;98170.09;;;6.15;66.50
77321;BME280;66382;52.252;8.780;2024-02-23T06:00:57;98169.28;;;6.14;66.41
77321;BME280;66382;52.252;8.780;2024-02-23T06:03:22;98176.44;;;6.14;66.49
77321;BME280;66382;52.252;8.780;2024-02-23T06:05:48;98179.47;;;6.17;67.11
77321;BME280;66382;52.252;8.780;2024-02-23T06:08:13;98183.94;;;6.23;66.92
77321;BME280;66382;52.252;8.780;2024-02-23T06:10:40;98181.06;;;6.25;67.31
77321;BME280;66382;52.252;8.780;2024-02-23T06:13:05;98179.81;;;6.28;66.81
77321;BME280;66382;52.252;8.780;2024-02-23T06:15:31;98180.19;;;6.31;67.02
77321;BME280;66382;52.252;8.780;2024-02-23T06:17:56;98179.16;;;6.32;66.87
77321;BME280;66382;52.252;8.780;2024-02-23T06:20:22;98177.91;;;6.35;66.77
77321;BME280;66382;52.252;8.780;2024-02-23T06:22:47;98190.56;;;6.39;66.75
77321;BME280;66382;52.252;8.780;2024-02-23T06:25:13;98180.72;;;6.40;66.33
77321;BME280;66382;52.252;8.780;2024-02-23T06:27:39;98192.16;;;6.40;66.04
77321;BME280;66382;52.252;8.780;2024-02-23T06:30:06;98192.78;;;6.42;66.78
77321;BME280;66382;52.252;8.780;2024-02-23T06:32:31;98197.88;;;6.44;66.22
77321;BME280;66382;52.252;8.780;2024-02-23T06:34:57;98203.22;;;6.44;66.18
77321;BME280;66382;52.252;8.780;2024-02-23T06:37:22;98205.06;;;6.43;66.42
77321;BME280;66382;52.252;8.780;2024-02-23T06:39:48;98199.94;;;6.42;66.01
77321;BME280;66382;52.252;8.780;2024-02-23T06:42:13;98199.59;;;6.38;66.05
77321;BME280;66382;52.252;8.780;2024-02-23T06:44:40;98203.88;;;6.39;66.77
77321;BME280;66382;52.252;8.780;2024-02-23T06:47:06;98204.91;;;6.38;66.36
77321;BME280;66382;52.252;8.780;2024-02-23T06:49:32;98210.00;;;6.40;66.95
77321;BME280;66382;52.252;8.780;2024-02-23T06:51:57;98224.94;;;6.41;66.47
77321;BME280;66382;52.252;8.780;2024-02-23T06:54:23;98210.38;;;6.43;66.21
77321;BME280;66382;52.252;8.780;2024-02-23T06:56:48;98225.72;;;6.48;66.51
77321;BME280;66382;52.252;8.780;2024-02-23T06:59:13;98217.13;;;6.46;66.14
77321;BME280;66382;52.252;8.780;2024-02-23T07:01:48;98226.13;;;6.45;66.62
77321;BME280;66382;52.252;8.780;2024-02-23T07:04:14;98228.94;;;6.50;66.06
77321;BME280;66382;52.252;8.780;2024-02-23T07:06:39;98227.69;;;6.53;66.06
77321;BME280;66382;52.252;8.780;2024-02-23T07:09:05;98238.13;;;6.54;66.00
77321;BME280;66382;52.252;8.780;2024-02-23T07:11:30;98241.00;;;6.53;66.55
77321;BME280;66382;52.252;8.780;2024-02-23T07:13:56;98233.84;;;6.53;66.30
77321;BME280;66382;52.252;8.780;2024-02-23T07:16:21;98257.38;;;6.56;66.29
77321;BME280;66382;52.252;8.780;2024-02-23T07:18:48;98250.34;;;6.62;65.58
77321;BME280;66382;52.252;8.780;2024-02-23T07:21:17;98248.88;;;6.66;66.28
77321;BME280;66382;52.252;8.780;2024-02-23T07:23:42;98252.38;;;6.66;66.17
77321;BME280;66382;52.252;8.780;2024-02-23T07:26:08;98250.31;;;6.68;66.18
77321;BME280;66382;52.252;8.780;2024-02-23T07:28:33;98251.91;;;6.70;66.33
77321;BME280;66382;52.252;8.780;2024-02-23T07:30:58;98249.25;;;6.70;66.30
77321;BME280;66382;52.252;8.780;2024-02-23T07:33:24;98238.41;;;6.71;65.22
77321;BME280;66382;52.252;8.780;2024-02-23T07:35:51;98245.13;;;6.74;66.00
77321;BME280;66382;52.252;8.780;2024-02-23T07:38:16;98239.59;;;6.75;65.90
77321;BME280;66382;52.252;8.780;2024-02-23T07:40:42;98238.91;;;6.80;65.01
77321;BME280;66382;52.252;8.780;2024-02-23T07:43:07;98246.25;;;6.84;65.87
77321;BME280;66382;52.252;8.780;2024-02-23T07:45:32;98245.59;;;6.89;66.06
77321;BME280;66382;52.252;8.780;2024-02-23T07:47:58;98248.19;;;6.96;65.51
77321;BME280;66382;52.252;8.780;2024-02-23T07:50:23;98243.38;;;7.04;65.25
77321;BME280;66382;52.252;8.780;2024-02-23T07:52:50;98250.22;;;7.37;66.30
77321;BME280;66382;52.252;8.780;2024-02-23T07:55:15;98252.09;;;7.97;66.64
77321;BME280;66382;52.252;8.780;2024-02-23T07:57:41;98251.44;;;8.55;68.06
77321;BME280;66382;52.252;8.780;2024-02-23T08:00:07;98251.81;;;9.18;67.26
77321;BME280;66382;52.252;8.780;2024-02-23T08:02:33;98248.75;;;9.66;67.78
77321;BME280;66382;52.252;8.780;2024-02-23T08:04:58;98249.09;;;9.99;66.43
77321;BME280;66382;52.252;8.780;2024-02-23T08:07:23;98252.25;;;10.24;64.61
77321;BME280;66382;52.252;8.780;2024-02-23T08:09:50;98256.91;;;10.46;65.09
77321;BME280;66382;52.252;8.780;2024-02-23T08:12:16;98260.00;;;10.71;64.73
77321;BME280;66382;52.252;8.780;2024-02-23T08:14:41;98269.22;;;10.97;63.13
77321;BME280;66382;52.252;8.780;2024-02-23T08:17:07;98269.16;;;10.92;63.63
77321;BME280;66382;52.252;8.780;2024-02-23T08:19:32;98279.56;;;10.89;63.65
77321;BME280;66382;52.252;8.780;2024-02-23T08:21:57;98279.44;;;11.17;64.78
77321;BME280;66382;52.252;8.780;2024-02-23T08:24:23;98286.91;;;11.54;61.93
77321;BME280;66382;52.252;8.780;2024-02-23T08:26:50;98298.03;;;11.85;62.63
77321;BME280;66382;52.252;8.780;2024-02-23T08:29:15;98288.97;;;11.91;62.51
77321;BME280;66382;52.252;8.780;2024-02-23T08:31:41;98285.38;;;12.02;60.34
77321;BME280;66382;52.252;8.780;2024-02-23T08:34:06;98294.94;;;12.20;62.78
77321;BME280;66382;52.252;8.780;2024-02-23T08:36:31;98294.78;;;12.32;61.42
77321;BME280;66382;52.252;8.780;2024-02-23T08:38:57;98290.69;;;12.52;62.61
77321;BME280;66382;52.252;8.780;2024-02-23T08:41:22;98294.50;;;12.61;61.63
77321;BME280;66382;52.252;8.780;2024-02-23T08:43:49;98295.69;;;12.43;60.05
77321;BME280;66382;52.252;8.780;2024-02-23T08:46:14;98304.50;;;12.38;60.87
77321;BME280;66382;52.252;8.780;2024-02-23T08:48:40;98295.09;;;12.09;59.56
77321;BME280;66382;52.252;8.780;2024-02-23T08:51:05;98303.91;;;11.82;59.85
77321;BME280;66382;52.252;8.780;2024-02-23T08:53:31;98304.66;;;11.55;59.03
77321;BME280;66382;52.252;8.780;2024-02-23T08:55:56;98319.53;;;11.46;58.74
77321;BME280;66382;52.252;8.780;2024-02-23T08:58:22;98325.03;;;11.56;59.58
77321;BME280;66382;52.252;8.780;2024-02-23T09:00:49;98316.59;;;11.87;60.84
77321;BME280;66382;52.252;8.780;2024-02-23T09:03:14;98312.72;;;11.99;57.67
77321;BME280;66382;52.252;8.780;2024-02-23T09:05:40;98312.22;;;12.02;58.60
77321;BME280;66382;52.252;8.780;2024-02-23T09:08:06;98320.22;;;11.97;59.19
77321;BME280;66382;52.252;8.780;2024-02-23T09:10:32;98326.69;;;11.57;57.77
77321;BME280;66382;52.252;8.780;2024-02-23T09:12:57;98323.34;;;11.11;58.33
77321;BME280;66382;52.252;8.780;2024-02-23T09:15:22;98323.19;;;10.67;57.92
77321;BME280;66382;52.252;8.780;2024-02-23T09:17:49;98333.97;;;10.39;57.46
77321;BME280;66382;52.252;8.780;2024-02-23T09:20:15;98333.91;;;10.10;59.01
77321;BME280;66382;52.252;8.780;2024-02-23T09:22:41;98353.56;;;9.87;57.88
77321;BME280;66382;52.252;8.780;2024-02-23T09:25:07;98360.91;;;9.68;59.21
77321;BME280;66382;52.252;8.780;2024-02-23T09:27:32;98355.56;;;9.56;59.29
77321;BME280;66382;52.252;8.780;2024-02-23T09:29:58;98360.00;;;9.51;59.62
77321;BME280;66382;52.252;8.780;2024-02-23T09:32:23;98366.75;;;9.41;59.19
77321;BME280;66382;52.252;8.780;2024-02-23T09:34:50;98369.19;;;9.31;59.21
77321;BME280;66382;52.252;8.780;2024-02-23T09:37:15;98379.19;;;9.24;59.89
77321;BME280;66382;52.252;8.780;2024-02-23T09:39:41;98381.41;;;9.15;59.62
77321;BME280;66382;52.252;8.780;2024-02-23T09:42:10;98384.06;;;9.03;58.89
77321;BME280;66382;52.252;8.780;2024-02-23T09:44:35;98366.81;;;8.88;59.48
77321;BME280;66382;52.252;8.780;2024-02-23T09:47:02;98374.50;;;8.84;60.22
77321;BME280;66382;52.252;8.780;2024-02-23T09:49:28;98382.38;;;8.79;58.95
77321;BME280;66382;52.252;8.780;2024-02-23T09:51:55;98382.25;;;8.74;60.31
77321;BME280;66382;52.252;8.780;2024-02-23T09:54:21;98386.88;;;8.67;60.33
77321;BME280;66382;52.252;8.780;2024-02-23T09:56:46;98394.75;;;8.61;60.43
77321;BME280;66382;52.252;8.780;2024-02-23T09:59:12;98388.84;;;8.59;60.81
77321;BME280;66382;52.252;8.780;2024-02-23T10:01:38;98390.91;;;8.57;60.22
77321;BME280;66382;52.252;8.780;2024-02-23T10:04:04;98398.56;;;8.54;60.47
77321;BME280;66382;52.252;8.780;2024-02-23T10:06:31;98400.44;;;8.53;59.72
77321;BME280;66382;52.252;8.780;2024-02-23T10:08:58;98393.44;;;8.52;60.32
77321;BME280;66382;52.252;8.780;2024-02-23T10:11:24;98399.38;;;8.54;61.11
77321;BME280;66382;52.252;8.780;2024-02-23T10:13:50;98387.44;;;8.57;60.64
77321;BME280;66382;52.252;8.780;2024-02-23T10:16:16;98397.44;;;8.61;60.54
77321;BME280;66382;52.252;8.780;2024-02-23T10:18:41;98401.50;;;8.64;59.93
77321;BME280;66382;52.252;8.780;2024-02-23T10:21:07;98403.13;;;8.65;59.97
77321;BME280;66382;52.252;8.780;2024-02-23T10:23:33;98411.59;;;8.62;59.96
77321;BME280;66382;52.252;8.780;2024-02-23T10:25:59;98399.97;;;8.56;60.65
77321;BME280;66382;52.252;8.780;2024-02-23T10:28:25;98404.84;;;8.59;60.29
77321;BME280;66382;52.252;8.780;2024-02-23T10:30:50;98399.88;;;8.63;60.05
77321;BME280;66382;52.252;8.780;2024-02-23T10:33:18;98400.25;;;8.67;58.94
77321;BME280;66382;52.252;8.780;2024-02-23T10:35:46;98408.03;;;8.68;59.50
77321;BME280;66382;52.252;8.780;2024-02-23T10:38:13;98397.69;;;8.72;59.44
77321;BME280;66382;52.252;8.780;2024-02-23T10:40:43;98393.75;;;8.74;58.87
77321;BME280;66382;52.252;8.780;2024-02-23T10:43:12;98396.22;;;8.76;58.94
77321;BME280;66382;52.252;8.780;2024-02-23T10:45:42;98400.03;;;8.80;58.92
77321;BME280;66382;52.252;8.780;2024-02-23T10:48:08;98391.00;;;8.81;59.54
77321;BME280;66382;52.252;8.780;2024-02-23T10:50:35;98393.78;;;8.86;59.95
77321;BME280;66382;52.252;8.780;2024-02-23T10:53:01;98398.53;;;8.84;60.03
77321;BME280;66382;52.252;8.780;2024-02-23T10:55:29;98391.00;;;8.81;59.81
77321;BME280;66382;52.252;8.780;2024-02-23T10:57:58;98394.56;;;8.75;58.85
77321;BME280;66382;52.252;8.780;2024-02-23T11:00:25;98402.81;;;8.73;60.14
77321;BME280;66382;52.252;8.780;2024-02-23T11:02:52;98397.00;;;8.76;58.80
77321;BME280;66382;52.252;8.780;2024-02-23T11:05:18;98395.41;;;8.75;58.97
77321;BME280;66382;52.252;8.780;2024-02-23T11:07:46;98400.97;;;8.74;59.81
77321;BME280;66382;52.252;8.780;2024-02-23T11:10:13;98399.09;;;8.74;59.97
77321;BME280;66382;52.252;8.780;2024-02-23T11:12:39;98387.59;;;8.74;59.15
77321;BME280;66382;52.252;8.780;2024-02-23T11:15:05;98393.97;;;8.73;60.00
77321;BME280;66382;52.252;8.780;2024-02-23T11:17:35;98384.94;;;8.74;59.71
77321;BME280;66382;52.252;8.780;2024-02-23T11:20:03;98391.66;;;8.76;59.99
77321;BME280;66382;52.252;8.780;2024-02-23T11:22:31;98380.31;;;8.81;60.56
77321;BME280;66382;52.252;8.780;2024-02-23T11:25:00;98377.06;;;8.91;59.97
77321;BME280;66382;52.252;8.780;2024-02-23T11:27:30;98373.25;;;8.98;60.35
77321;BME280;66382;52.252;8.780;2024-02-23T11:29:59;98372.09;;;9.06;59.81
77321;BME280;66382;52.252;8.780;2024-02-23T11:32:36;98363.59;;;9.09;60.47
77321;BME280;66382;52.252;8.780;2024-02-23T11:35:02;98351.31;;;9.20;59.72
77321;BME280;66382;52.252;8.780;2024-02-23T11:37:28;98357.47;;;9.32;58.54
77321;BME280;66382;52.252;8.780;2024-02-23T11:39:53;98347.22;;;9.41;58.60
77321;BME280;66382;52.252;8.780;2024-02-23T11:42:19;98344.31;;;9.42;58.23
77321;BME280;66382;52.252;8.780;2024-02-23T11:44:45;98342.09;;;9.51;59.11
77321;BME280;66382;52.252;8.780;2024-02-23T11:47:10;98356.03;;;9.65;58.95
77321;BME280;66382;52.252;8.780;2024-02-23T11:49:37;98351.59;;;9.71;59.54
77321;BME280;66382;52.252;8.780;2024-02-23T11:52:03;98349.97;;;9.69;59.54
77321;BME280;66382;52.252;8.780;2024-02-23T11:54:28;98361.97;;;9.67;58.33
77321;BME280;66382;52.252;8.780;2024-02-23T11:56:54;98366.47;;;9.66;58.41
77321;BME280;66382;52.252;8.780;2024-02-23T11:59:20;98365.78;;;9.59;58.01
77321;BME280;66382;52.252;8.780;2024-02-23T12:01:46;98364.28;;;9.52;59.17
77321;BME280;66382;52.252;8.780;2024-02-23T12:04:11;98351.16;;;9.50;60.08
77321;BME280;66382;52.252;8.780;2024-02-23T12:06:38;98340.09;;;9.46;58.30
77321;BME280;66382;52.252;8.780;2024-02-23T12:09:03;98365.34;;;9.39;58.97
77321;BME280;66382;52.252;8.780;2024-02-23T12:11:29;98357.22;;;9.34;58.44
77321;BME280;66382;52.252;8.780;2024-02-23T12:13:55;98362.13;;;9.25;57.66
77321;BME280;66382;52.252;8.780;2024-02-23T12:16:21;98360.94;;;9.21;58.67
77321;BME280;66382;52.252;8.780;2024-02-23T12:18:52;98357.22;;;9.22;59.61
77321;BME280;66382;52.252;8.780;2024-02-23T12:21:18;98367.47;;;9.25;58.12
77321;BME280;66382;52.252;8.780;2024-02-23T12:23:45;98367.69;;;9.23;58.96
77321;BME280;66382;52.252;8.780;2024-02-23T12:26:14;98366.28;;;9.21;58.97
77321;BME280;66382;52.252;8.780;2024-02-23T12:28:39;98360.72;;;9.22;58.28
77321;BME280;66382;52.252;8.780;2024-02-23T12:31:06;98358.28;;;9.21;58.51
77321;BME280;66382;52.252;8.780;2024-02-23T12:33:32;98358.28;;;9.21;58.69
77321;BME280;66382;52.252;8.780;2024-02-23T12:35:58;98355.47;;;9.28;59.28
77321;BME280;66382;52.252;8.780;2024-02-23T12:38:24;98367.00;;;9.40;59.46
77321;BME280;66382;52.252;8.780;2024-02-23T12:40:51;98358.50;;;9.43;59.06
77321;BME280;66382;52.252;8.780;2024-02-23T12:43:17;98354.31;;;9.47;59.02
77321;BME280;66382;52.252;8.780;2024-02-23T12:45:43;98363.16;;;9.47;58.71
77321;BME280;66382;52.252;8.780;2024-02-23T12:48:09;98369.31;;;9.48;58.98
77321;BME280;66382;52.252;8.780;2024-02-23T12:50:34;98368.84;;;9.51;59.85
77321;BME280;66382;52.252;8.780;2024-02-23T12:53:00;98367.22;;;9.62;58.71
77321;BME280;66382;52.252;8.780;2024-02-23T12:55:25;98369.53;;;9.70;58.13
77321;BME280;66382;52.252;8.780;2024-02-23T12:57:52;98370.06;;;9.84;58.55
77321;BME280;66382;52.252;8.780;2024-02-23T13:00:18;98360.50;;;9.88;57.85
77321;BME280;66382;52.252;8.780;2024-02-23T13:02:43;98357.84;;;9.88;59.16
77321;BME280;66382;52.252;8.780;2024-02-23T13:05:09;98364.00;;;9.88;58.04